Time;durP1;ratioP1;P1;durP2;ratioP2;P2;SDS_P1;SDS_P2;PMS_P1;PMS_P2;Temp;Humidity;BMP_temperature;BMP_pressure;BME280_temperature;BME280_humidity;BME280_pressure;Samples;Min_cycle;Max_cycle;Signal;HPM_P1;HPM_P2
2022/10/12 00:00:07;;;;;;;12.15;8.82;;;15.10;83.40;;;;;;5048449;28;20405;-75
2022/10/12 00:02:33;;;;;;;11.65;8.18;;;15.10;83.70;;;;;;5049469;28;20184;-74
2022/10/12 00:04:58;;;;;;;10.75;8.02;;;15.10;83.40;;;;;;5048029;28;20226;-75
2022/10/12 00:07:24;;;;;;;11.40;8.35;;;15.00;83.40;;;;;;5046543;28;20261;-75
2022/10/12 00:09:50;;;;;;;10.90;8.07;;;15.00;84.10;;;;;;5050001;28;20180;-75
2022/10/12 00:12:15;;;;;;;9.75;8.35;;;15.00;84.10;;;;;;5046016;28;20175;-75
2022/10/12 00:14:41;;;;;;;10.82;8.10;;;15.00;83.50;;;;;;5044560;28;20189;-75
2022/10/12 00:17:07;;;;;;;13.68;7.45;;;15.00;83.50;;;;;;5052347;28;20562;-75
2022/10/12 00:19:32;;;;;;;11.15;8.00;;;15.00;84.10;;;;;;5045057;28;20322;-75
2022/10/12 00:21:58;;;;;;;13.55;8.50;;;15.00;83.70;;;;;;5047941;28;20269;-75
2022/10/12 00:24:24;;;;;;;10.65;8.02;;;15.00;83.50;;;;;;5044347;28;20222;-75
2022/10/12 00:26:50;;;;;;;11.13;8.05;;;15.00;83.60;;;;;;5046851;28;20677;-74
2022/10/12 00:29:16;;;;;;;11.18;7.85;;;15.00;83.60;;;;;;5051520;28;20257;-74
2022/10/12 00:31:41;;;;;;;11.30;7.90;;;15.00;84.20;;;;;;5049111;28;20194;-74
2022/10/12 00:34:08;;;;;;;10.82;8.25;;;15.00;84.10;;;;;;5053864;28;20215;-74
2022/10/12 00:36:34;;;;;;;11.48;8.00;;;15.00;83.60;;;;;;5050041;28;20184;-74
2022/10/12 00:39:02;;;;;;;10.20;8.35;;;15.00;84.00;;;;;;5049785;28;20673;-74
2022/10/12 00:41:34;;;;;;;10.85;7.78;;;15.00;83.90;;;;;;5052050;28;20269;-74
2022/10/12 00:43:59;;;;;;;10.90;7.88;;;14.90;83.70;;;;;;5048608;28;20712;-74
2022/10/12 00:46:29;;;;;;;9.18;7.65;;;15.00;84.40;;;;;;5048066;28;20179;-74
2022/10/12 00:49:15;;;;;;;12.10;7.82;;;15.00;85.10;;;;;;5042446;28;20263;-74
2022/10/12 00:51:44;;;;;;;11.02;8.10;;;14.90;85.40;;;;;;5052914;28;20175;-74
2022/10/12 00:54:16;;;;;;;10.07;7.63;;;14.90;85.60;;;;;;5048467;28;20617;-74
2022/10/12 00:56:45;;;;;;;13.25;8.10;;;14.90;86.50;;;;;;5050093;28;20183;-74
2022/10/12 00:59:20;;;;;;;10.75;7.65;;;14.90;86.70;;;;;;5051738;28;20175;-74
2022/10/12 01:01:46;;;;;;;11.82;8.10;;;14.90;85.10;;;;;;5043693;28;20190;-75
2022/10/12 01:04:12;;;;;;;12.43;7.80;;;14.80;85.30;;;;;;5045563;28;20660;-75
2022/10/12 01:06:38;;;;;;;12.50;7.95;;;14.80;84.80;;;;;;5049632;28;20183;-75
2022/10/12 01:09:04;;;;;;;12.20;8.15;;;14.70;85.90;;;;;;5046649;28;20176;-75
2022/10/12 01:11:29;;;;;;;11.55;7.35;;;14.80;85.20;;;;;;5052975;28;20187;-75
2022/10/12 01:13:56;;;;;;;10.18;7.57;;;14.80;85.20;;;;;;5050247;28;20729;-75
2022/10/12 01:16:22;;;;;;;11.25;8.02;;;14.80;85.20;;;;;;5051053;28;20183;-75
2022/10/12 01:19:24;;;;;;;11.43;7.53;;;14.80;84.90;;;;;;5055145;28;20183;-75
2022/10/12 01:22:08;;;;;;;11.63;8.07;;;14.90;86.00;;;;;;5049678;28;20754;-75
2022/10/12 01:24:44;;;;;;;11.48;7.75;;;14.90;85.50;;;;;;5050906;28;20219;-75
2022/10/12 01:27:42;;;;;;;13.02;7.85;;;14.90;85.70;;;;;;5047634;28;20210;-75
2022/10/12 01:30:14;;;;;;;10.80;7.60;;;14.90;84.70;;;;;;5022053;28;20203;-75
2022/10/12 01:32:48;;;;;;;12.45;8.45;;;14.80;84.90;;;;;;5024625;28;20207;-75
2022/10/12 01:35:24;;;;;;;9.27;7.28;;;14.90;84.80;;;;;;5007152;28;20965;-75
2022/10/12 01:38:18;;;;;;;11.50;7.68;;;14.90;86.40;;;;;;5010985;28;20194;-75
2022/10/12 01:41:02;;;;;;;8.52;7.00;;;14.90;85.00;;;;;;5028729;28;20226;-75
2022/10/12 01:43:36;;;;;;;9.85;7.90;;;14.90;86.40;;;;;;5026088;28;20204;-74
2022/10/12 01:46:20;;;;;;;10.45;7.75;;;14.90;86.00;;;;;;5029260;28;20214;-75
2022/10/12 01:48:52;;;;;;;14.57;8.20;;;14.90;85.50;;;;;;5022907;28;20674;-75
2022/10/12 01:51:35;;;;;;;11.23;7.65;;;14.90;85.50;;;;;;5025524;28;20188;-75
2022/10/12 01:54:33;;;;;;;8.68;7.15;;;14.90;85.70;;;;;;5010638;28;20197;-75
2022/10/12 01:57:15;;;;;;;9.38;7.85;;;14.80;84.80;;;;;;5008397;28;20259;-76
2022/10/12 02:00:03;;;;;;;12.10;8.52;;;14.80;86.20;;;;;;5010095;28;20193;-73
2022/10/12 02:02:28;;;;;;;13.57;8.77;;;14.80;85.00;;;;;;5011044;28;20192;-74
2022/10/12 02:05:34;;;;;;;10.93;7.80;;;14.80;85.30;;;;;;5007895;28;20226;-74
2022/10/12 02:08:23;;;;;;;11.52;6.95;;;14.80;84.60;;;;;;4983227;28;20263;-75
2022/10/12 02:11:31;;;;;;;10.82;8.35;;;14.80;86.30;;;;;;4976706;28;20191;-75
2022/10/12 02:14:07;;;;;;;13.55;7.75;;;14.90;86.80;;;;;;4970524;28;20197;-75
2022/10/12 02:16:44;;;;;;;10.70;7.05;;;14.90;87.80;;;;;;4973730;28;20190;-75
2022/10/12 02:19:16;;;;;;;10.50;8.18;;;14.90;87.30;;;;;;4973165;28;20194;-75
2022/10/12 02:21:43;;;;;;;14.05;8.75;;;14.90;87.80;;;;;;4973376;28;20198;-75
2022/10/12 02:24:11;;;;;;;14.50;9.23;;;14.90;88.10;;;;;;4974705;28;20233;-75
2022/10/12 02:26:41;;;;;;;11.40;7.63;;;14.90;88.40;;;;;;4968298;28;20193;-75
2022/10/12 02:29:12;;;;;;;13.75;9.55;;;14.90;87.50;;;;;;4972622;28;20268;-75
2022/10/12 02:32:00;;;;;;;11.18;8.30;;;14.80;86.70;;;;;;4976965;28;20600;-74
2022/10/12 02:34:40;;;;;;;14.85;8.85;;;14.80;86.20;;;;;;4979356;28;20281;-73
2022/10/12 02:37:37;;;;;;;15.38;9.27;;;14.70;86.10;;;;;;4979465;28;20189;-74
2022/10/12 02:40:42;;;;;;;16.98;9.57;;;14.80;86.00;;;;;;4976352;28;20189;-74
2022/10/12 02:43:15;;;;;;;13.43;8.55;;;14.80;86.10;;;;;;4929069;29;20226;-75
2022/10/12 02:45:45;;;;;;;12.38;9.00;;;14.70;86.10;;;;;;4930983;29;20207;-74
2022/10/12 02:48:16;;;;;;;13.20;8.88;;;14.80;86.10;;;;;;4927385;29;20191;-75
2022/10/12 02:50:43;;;;;;;13.82;8.57;;;14.70;85.80;;;;;;4948072;28;20209;-75
2022/10/12 02:53:09;;;;;;;12.52;8.90;;;14.70;85.90;;;;;;4963644;28;20208;-74
2022/10/12 02:55:58;;;;;;;14.02;9.30;;;14.70;86.20;;;;;;4966658;28;20193;-75
2022/10/12 02:58:24;;;;;;;15.10;9.48;;;14.80;87.90;;;;;;4960143;28;20354;-74
2022/10/12 03:00:50;;;;;;;16.73;9.80;;;14.80;88.00;;;;;;4949061;28;20588;-74
2022/10/12 03:03:16;;;;;;;11.98;9.07;;;14.70;87.90;;;;;;4960725;28;20290;-75
2022/10/12 03:05:42;;;;;;;13.77;9.95;;;14.70;87.50;;;;;;4961382;28;20201;-74
2022/10/12 03:08:08;;;;;;;15.10;9.55;;;14.80;87.60;;;;;;4962951;28;20745;-75
2022/10/12 03:10:34;;;;;;;14.27;9.57;;;14.70;87.50;;;;;;4964534;28;20201;-75
2022/10/12 03:12:59;;;;;;;15.68;9.60;;;14.80;87.70;;;;;;4962470;28;20270;-75
2022/10/12 03:15:25;;;;;;;16.02;10.48;;;14.80;87.80;;;;;;4962477;28;20190;-74
2022/10/12 03:17:51;;;;;;;14.10;9.90;;;14.80;88.00;;;;;;4981274;28;20191;-75
2022/10/12 03:20:17;;;;;;;14.60;8.82;;;14.70;87.50;;;;;;5049488;28;20195;-74
2022/10/12 03:22:42;;;;;;;12.00;8.98;;;14.70;87.00;;;;;;5048758;28;20258;-74
2022/10/12 03:25:08;;;;;;;16.88;10.40;;;14.70;87.10;;;;;;5047099;28;20223;-73
2022/10/12 03:27:34;;;;;;;17.77;10.13;;;14.70;86.80;;;;;;5049162;28;20695;-75
2022/10/12 03:29:59;;;;;;;15.77;10.07;;;14.70;87.00;;;;;;5045212;28;20188;-74
2022/10/12 03:32:25;;;;;;;15.10;10.70;;;14.70;87.90;;;;;;5048376;28;20859;-74
2022/10/12 03:34:51;;;;;;;17.65;10.27;;;14.70;89.00;;;;;;5045112;28;20268;-75
2022/10/12 03:37:16;;;;;;;15.50;9.55;;;14.70;88.90;;;;;;5051972;28;20663;-75
2022/10/12 03:39:42;;;;;;;16.60;10.10;;;14.70;88.00;;;;;;5045871;28;20176;-75
2022/10/12 03:42:08;;;;;;;18.35;9.70;;;14.70;87.50;;;;;;5045180;28;20278;-75
2022/10/12 03:44:33;;;;;;;15.75;9.70;;;14.60;87.20;;;;;;5043094;28;20262;-75
2022/10/12 03:46:59;;;;;;;14.55;9.40;;;14.60;87.30;;;;;;5045264;28;20282;-75
2022/10/12 03:49:25;;;;;;;17.45;10.48;;;14.60;87.10;;;;;;5044123;28;20172;-76
2022/10/12 03:51:50;;;;;;;13.32;9.80;;;14.60;87.80;;;;;;5047198;28;20261;-75
2022/10/12 03:54:16;;;;;;;14.65;10.18;;;14.60;87.60;;;;;;5049098;28;20191;-75
2022/10/12 03:56:42;;;;;;;15.77;9.27;;;14.60;87.10;;;;;;5046787;28;20191;-73
2022/10/12 03:59:07;;;;;;;14.68;9.25;;;14.60;87.60;;;;;;5052792;28;20234;-74
2022/10/12 04:01:33;;;;;;;18.05;10.30;;;14.60;88.50;;;;;;5048585;28;20644;-74
2022/10/12 04:03:59;;;;;;;12.32;9.45;;;14.60;88.50;;;;;;5048506;28;20230;-74
2022/10/12 04:06:24;;;;;;;16.45;10.30;;;14.70;89.20;;;;;;5047862;28;20180;-73
2022/10/12 04:08:50;;;;;;;17.73;10.32;;;14.70;89.50;;;;;;5052479;28;20190;-73
2022/10/12 04:11:16;;;;;;;17.77;10.75;;;14.70;89.30;;;;;;5052211;28;20232;-74
2022/10/12 04:13:42;;;;;;;13.85;9.60;;;14.70;89.60;;;;;;5052265;28;20247;-75
2022/10/12 04:16:08;;;;;;;15.80;9.82;;;14.70;89.20;;;;;;5050697;28;20229;-75
2022/10/12 04:18:34;;;;;;;15.18;10.32;;;14.70;89.30;;;;;;5044603;28;20689;-73
2022/10/12 04:21:00;;;;;;;20.02;10.00;;;14.60;88.50;;;;;;5065421;28;20226;-72
2022/10/12 04:23:27;;;;;;;14.15;9.48;;;14.60;88.40;;;;;;5051666;28;20214;-72
2022/10/12 04:25:52;;;;;;;15.40;10.50;;;14.50;87.90;;;;;;5049533;28;20895;-72
2022/10/12 04:28:18;;;;;;;14.80;10.90;;;14.50;87.60;;;;;;5053083;28;20279;-73
2022/10/12 04:30:44;;;;;;;18.25;9.68;;;14.50;87.50;;;;;;5051846;28;20211;-73
2022/10/12 04:33:10;;;;;;;17.20;10.30;;;14.50;87.40;;;;;;5050127;28;20218;-73
2022/10/12 04:35:36;;;;;;;17.17;10.18;;;14.50;87.20;;;;;;5047591;28;20211;-73
2022/10/12 04:38:02;;;;;;;23.25;11.13;;;14.60;87.80;;;;;;5050935;28;20594;-72
2022/10/12 04:40:28;;;;;;;18.48;10.88;;;14.60;87.70;;;;;;5057773;28;20586;-73
2022/10/12 04:42:54;;;;;;;14.60;9.80;;;14.60;87.60;;;;;;5054946;28;20179;-72
2022/10/12 04:45:21;;;;;;;17.02;11.52;;;14.60;88.30;;;;;;5052436;28;20196;-71
2022/10/12 04:47:46;;;;;;;18.73;10.90;;;14.60;87.80;;;;;;5052553;28;20190;-73
2022/10/12 04:50:12;;;;;;;17.10;11.13;;;14.70;89.40;;;;;;5049427;28;20179;-73
2022/10/12 04:52:38;;;;;;;17.65;10.75;;;14.70;89.90;;;;;;5042872;28;20661;-73
2022/10/12 04:55:04;;;;;;;15.48;9.93;;;14.70;89.40;;;;;;5046001;28;20187;-73
2022/10/12 04:57:30;;;;;;;14.10;10.30;;;14.70;90.00;;;;;;5054910;28;20319;-75
2022/10/12 04:59:55;;;;;;;18.17;9.38;;;14.70;90.00;;;;;;5049776;28;20183;-74
2022/10/12 05:02:21;;;;;;;18.35;9.43;;;14.70;89.00;;;;;;5049574;28;20183;-74
2022/10/12 05:04:47;;;;;;;15.52;10.02;;;14.70;88.60;;;;;;5048602;28;20265;-73
2022/10/12 05:07:12;;;;;;;13.68;9.73;;;14.60;88.40;;;;;;5052628;28;20182;-73
2022/10/12 05:09:38;;;;;;;13.25;9.02;;;14.70;88.50;;;;;;5051913;28;20202;-74
2022/10/12 05:12:04;;;;;;;14.57;10.05;;;14.60;88.20;;;;;;5048090;28;20195;-73
2022/10/12 05:14:30;;;;;;;13.10;9.13;;;14.60;88.30;;;;;;5045967;28;20199;-73
2022/10/12 05:16:55;;;;;;;10.48;8.40;;;14.60;87.80;;;;;;5053133;28;20176;-73
2022/10/12 05:19:21;;;;;;;14.82;9.32;;;14.60;87.60;;;;;;5050319;28;20174;-73
2022/10/12 05:21:47;;;;;;;15.98;9.15;;;14.60;87.50;;;;;;5052611;28;20664;-74
2022/10/12 05:24:12;;;;;;;16.50;9.75;;;14.70;87.70;;;;;;5048383;28;20810;-73
2022/10/12 05:26:38;;;;;;;21.45;9.52;;;14.70;87.70;;;;;;5048406;28;20226;-74
2022/10/12 05:29:04;;;;;;;13.40;8.43;;;14.70;87.70;;;;;;5048211;28;20267;-73
2022/10/12 05:31:29;;;;;;;12.52;8.98;;;14.70;88.70;;;;;;5048823;28;20192;-73
2022/10/12 05:33:55;;;;;;;16.23;9.73;;;14.80;89.20;;;;;;5056223;28;20179;-73
2022/10/12 05:36:21;;;;;;;17.13;8.95;;;14.80;89.50;;;;;;5045500;28;20981;-73
2022/10/12 05:38:47;;;;;;;11.45;8.45;;;14.80;90.50;;;;;;5052348;28;20284;-73
2022/10/12 05:41:13;;;;;;;15.18;8.68;;;14.90;90.70;;;;;;5045522;28;20203;-73
2022/10/12 05:43:39;;;;;;;14.55;10.07;;;14.80;89.10;;;;;;5044883;28;20917;-73
2022/10/12 05:46:05;;;;;;;14.18;9.45;;;14.80;88.60;;;;;;5041480;28;20275;-73
2022/10/12 05:48:32;;;;;;;12.32;8.35;;;14.80;88.50;;;;;;5045418;28;20195;-73
2022/10/12 05:50:58;;;;;;;15.02;9.80;;;14.80;88.70;;;;;;5045747;28;20183;-73
2022/10/12 05:53:23;;;;;;;12.10;8.25;;;14.80;88.20;;;;;;5051744;28;20190;-73
2022/10/12 05:55:57;;;;;;;14.68;8.85;;;14.80;88.60;;;;;;5050889;28;20187;-73
2022/10/12 05:58:24;;;;;;;13.05;7.75;;;14.80;87.70;;;;;;5043988;28;20171;-73
2022/10/12 06:00:50;;;;;;;10.60;7.60;;;14.90;87.90;;;;;;5045344;28;20978;-73
2022/10/12 06:03:16;;;;;;;8.95;7.32;;;14.90;87.90;;;;;;5042600;28;20212;-73
2022/10/12 06:05:42;;;;;;;11.00;7.13;;;14.90;88.10;;;;;;5050293;28;20279;-73
2022/10/12 06:08:09;;;;;;;8.18;7.13;;;14.90;87.80;;;;;;5051366;28;20179;-74
2022/10/12 06:10:42;;;;;;;7.68;6.28;;;15.00;88.40;;;;;;5049221;28;20176;-74
2022/10/12 06:13:08;;;;;;;8.23;6.97;;;15.00;87.80;;;;;;5047497;28;20270;-74
2022/10/12 06:15:35;;;;;;;8.27;5.97;;;15.00;87.90;;;;;;5049848;28;20262;-73
2022/10/12 06:18:01;;;;;;;7.25;6.07;;;15.10;88.00;;;;;;5041512;28;20254;-75
2022/10/12 06:20:27;;;;;;;11.68;6.55;;;15.10;89.40;;;;;;5048990;28;20763;-73
2022/10/12 06:22:52;;;;;;;8.15;6.85;;;15.10;88.00;;;;;;5050486;28;20195;-73
2022/10/12 06:25:18;;;;;;;8.48;6.78;;;15.10;87.90;;;;;;5043893;28;20311;-75
2022/10/12 06:27:44;;;;;;;8.57;7.05;;;15.10;87.70;;;;;;5044106;28;20680;-74
2022/10/12 06:30:11;;;;;;;7.22;6.07;;;15.20;87.70;;;;;;5049148;28;20195;-74
2022/10/12 06:32:37;;;;;;;8.10;5.78;;;15.20;87.70;;;;;;5047528;28;20188;-74
2022/10/12 06:35:03;;;;;;;9.68;6.72;;;15.20;88.80;;;;;;5049523;28;20185;-73
2022/10/12 06:37:28;;;;;;;11.23;6.63;;;15.30;88.30;;;;;;5038102;28;20837;-75
2022/10/12 06:39:54;;;;;;;8.13;7.30;;;15.40;89.00;;;;;;5047676;28;20210;-72
2022/10/12 06:42:20;;;;;;;9.65;6.63;;;15.40;89.70;;;;;;5049781;28;20183;-72
2022/10/12 06:44:46;;;;;;;9.95;7.03;;;15.50;88.70;;;;;;5047042;28;20226;-75
2022/10/12 06:47:12;;;;;;;9.00;6.88;;;15.40;88.40;;;;;;5082487;28;20178;-75
2022/10/12 06:49:37;;;;;;;10.60;6.68;;;15.50;88.40;;;;;;5045353;28;20202;-75
2022/10/12 06:52:03;;;;;;;8.48;7.00;;;15.50;88.20;;;;;;5050270;28;20183;-75
2022/10/12 06:54:29;;;;;;;8.10;7.03;;;15.50;88.20;;;;;;5050758;28;20187;-75
2022/10/12 06:56:55;;;;;;;9.98;7.22;;;15.60;88.30;;;;;;5052629;28;20688;-75
2022/10/12 06:59:21;;;;;;;10.27;7.70;;;15.60;88.20;;;;;;5052150;28;20189;-76
2022/10/12 07:01:49;;;;;;;7.07;6.45;;;15.70;88.20;;;;;;5049052;28;20614;-75
2022/10/12 07:04:15;;;;;;;10.65;7.50;;;15.80;88.50;;;;;;5045997;28;20293;-75
2022/10/12 07:06:41;;;;;;;9.60;7.80;;;15.80;88.00;;;;;;5049731;28;20179;-75
2022/10/12 07:09:07;;;;;;;9.77;7.38;;;15.80;88.20;;;;;;5057217;28;20182;-75
2022/10/12 07:11:33;;;;;;;8.35;7.47;;;15.80;87.90;;;;;;5053423;28;20187;-75
2022/10/12 07:13:58;;;;;;;10.32;7.88;;;15.90;88.20;;;;;;5053581;28;20189;-75
2022/10/12 07:16:24;;;;;;;11.93;7.85;;;16.00;88.50;;;;;;5044629;28;20260;-75
2022/10/12 07:18:50;;;;;;;9.57;8.18;;;16.00;87.80;;;;;;5054189;28;20182;-75
2022/10/12 07:21:16;;;;;;;12.93;8.77;;;16.10;87.90;;;;;;5050107;28;20175;-76
2022/10/12 07:23:42;;;;;;;11.43;8.68;;;16.20;88.50;;;;;;5046746;28;20210;-75
2022/10/12 07:26:08;;;;;;;11.65;8.98;;;16.20;87.60;;;;;;5055496;28;20179;-76
2022/10/12 07:28:34;;;;;;;18.35;9.45;;;16.30;87.70;;;;;;5058265;28;20179;-76
2022/10/12 07:31:06;;;;;;;14.32;8.93;;;16.30;87.70;;;;;;5052525;28;20237;-74
2022/10/12 07:33:33;;;;;;;13.48;9.00;;;16.40;87.40;;;;;;5056095;28;20226;-73
2022/10/12 07:35:59;;;;;;;17.48;9.82;;;16.40;87.90;;;;;;5055785;28;20180;-76
2022/10/12 07:38:25;;;;;;;14.55;8.57;;;16.50;87.60;;;;;;5055129;28;20957;-75
2022/10/12 07:40:51;;;;;;;11.15;8.05;;;16.50;87.40;;;;;;5051583;28;20180;-76
2022/10/12 07:43:16;;;;;;;11.15;8.77;;;16.50;87.30;;;;;;5054927;28;20179;-76
2022/10/12 07:45:43;;;;;;;11.35;8.80;;;16.60;87.30;;;;;;5056740;28;20285;-74
2022/10/12 07:48:08;;;;;;;13.30;9.18;;;16.70;87.10;;;;;;5055199;28;20635;-75
2022/10/12 07:50:34;;;;;;;15.82;8.60;;;16.70;87.00;;;;;;5054063;28;20183;-75
2022/10/12 07:53:00;;;;;;;14.65;9.30;;;16.70;86.80;;;;;;5057286;28;20777;-75
2022/10/12 07:55:25;;;;;;;10.90;9.15;;;16.70;86.70;;;;;;5054254;28;20248;-76
2022/10/12 07:57:51;;;;;;;11.48;9.05;;;16.70;86.60;;;;;;5053834;28;20183;-76
2022/10/12 08:00:19;;;;;;;13.00;9.43;;;16.80;86.60;;;;;;5050070;28;20951;-75
2022/10/12 08:02:44;;;;;;;14.70;9.82;;;16.80;86.80;;;;;;5053676;28;20190;-76
2022/10/12 08:05:10;;;;;;;14.00;9.07;;;16.80;86.50;;;;;;5058172;28;20210;-76
2022/10/12 08:07:36;;;;;;;12.80;8.27;;;16.80;86.40;;;;;;5051201;28;20202;-74
2022/10/12 08:10:01;;;;;;;10.65;8.05;;;16.90;86.70;;;;;;5057911;28;20186;-76
2022/10/12 08:12:27;;;;;;;10.75;8.50;;;16.90;86.30;;;;;;5055721;28;20245;-75
2022/10/12 08:14:53;;;;;;;11.00;8.43;;;16.90;86.60;;;;;;5056928;28;20290;-74
2022/10/12 08:17:18;;;;;;;11.43;7.72;;;17.00;86.30;;;;;;5058801;28;20198;-76
2022/10/12 08:19:44;;;;;;;8.00;7.18;;;16.90;86.10;;;;;;5058673;28;20179;-76
2022/10/12 08:22:11;;;;;;;9.52;7.47;;;16.90;86.20;;;;;;5058894;28;20187;-76
2022/10/12 08:24:37;;;;;;;11.05;7.45;;;16.90;86.40;;;;;;5050402;28;20237;-75
2022/10/12 08:27:03;;;;;;;14.45;8.13;;;17.00;86.60;;;;;;5055248;28;20179;-75
2022/10/12 08:29:28;;;;;;;9.65;7.68;;;17.00;86.20;;;;;;5059631;28;20179;-75
2022/10/12 08:31:54;;;;;;;11.65;7.25;;;17.00;86.10;;;;;;5053618;28;20174;-75
2022/10/12 08:34:20;;;;;;;11.70;7.50;;;17.10;86.50;;;;;;5053920;28;20660;-75
2022/10/12 08:36:46;;;;;;;9.35;7.13;;;17.10;86.00;;;;;;5050372;28;20202;-76
2022/10/12 08:39:11;;;;;;;8.32;6.72;;;17.10;86.20;;;;;;5055795;28;20182;-76
2022/10/12 08:42:04;;;;;;;11.77;6.75;;;17.20;86.10;;;;;;5056557;28;20845;-76
2022/10/12 08:44:51;;;;;;;12.10;6.25;;;17.20;85.30;;;;;;5056727;28;20309;-75
2022/10/12 08:47:24;;;;;;;9.20;5.53;;;17.30;85.80;;;;;;5049568;28;20187;-76
2022/10/12 08:49:50;;;;;;;8.43;6.97;;;17.30;85.60;;;;;;5049990;28;20174;-74
2022/10/12 08:52:55;;;;;;;8.75;6.57;;;17.30;85.40;;;;;;5056623;28;20201;-75
2022/10/12 08:55:32;;;;;;;10.70;5.90;;;17.30;84.60;;;;;;5041364;28;21176;-75
2022/10/12 08:57:58;;;;;;;6.60;6.00;;;17.40;85.00;;;;;;5042416;28;20628;-74
2022/10/12 09:00:23;;;;;;;7.35;5.70;;;17.40;85.30;;;;;;5041102;28;20209;-74
2022/10/12 09:03:06;;;;;;;8.50;5.47;;;17.50;85.30;;;;;;5041313;28;21111;-74
2022/10/12 09:06:07;;;;;;;6.63;6.03;;;17.50;84.60;;;;;;5041025;28;20233;-75
2022/10/12 09:09:07;;;;;;;9.18;7.07;;;17.50;84.70;;;;;;5039246;28;20914;-75
2022/10/12 09:11:54;;;;;;;7.97;6.68;;;17.60;84.20;;;;;;5039555;28;20223;-76
2022/10/12 09:14:32;;;;;;;7.85;6.40;;;17.60;83.80;;;;;;5038486;28;20238;-76
2022/10/12 09:17:01;;;;;;;7.80;6.63;;;17.60;84.40;;;;;;5038088;28;20179;-76
2022/10/12 09:19:29;;;;;;;6.68;5.97;;;17.60;83.80;;;;;;5040995;28;20924;-75
2022/10/12 09:21:56;;;;;;;10.30;6.10;;;17.70;83.90;;;;;;5040224;28;20183;-72
2022/10/12 09:24:33;;;;;;;9.02;6.88;;;17.70;84.00;;;;;;5041581;28;20727;-75
2022/10/12 09:27:02;;;;;;;7.13;6.32;;;17.70;84.10;;;;;;5041317;28;20183;-77
2022/10/12 09:29:30;;;;;;;6.45;5.85;;;17.70;84.20;;;;;;5041342;28;20226;-75
2022/10/12 09:32:05;;;;;;;7.03;5.80;;;17.80;84.10;;;;;;5046226;28;20195;-76
2022/10/12 09:34:31;;;;;;;7.18;6.18;;;17.80;84.00;;;;;;5050121;28;20207;-75
2022/10/12 09:36:57;;;;;;;7.03;6.10;;;17.90;84.70;;;;;;5053235;28;20203;-76
2022/10/12 09:39:34;;;;;;;7.43;6.60;;;17.90;84.50;;;;;;5050558;28;20637;-75
2022/10/12 09:42:00;;;;;;;9.52;6.65;;;17.90;84.00;;;;;;5049826;28;20209;-75
2022/10/12 09:44:34;;;;;;;10.50;7.18;;;18.00;84.20;;;;;;5052477;28;20218;-76
2022/10/12 09:47:23;;;;;;;8.73;6.45;;;18.10;83.50;;;;;;5049398;28;20679;-76
2022/10/12 09:49:51;;;;;;;11.52;6.15;;;18.20;83.70;;;;;;5046744;28;20183;-75
2022/10/12 09:52:21;;;;;;;8.35;6.93;;;18.20;83.20;;;;;;5052586;28;20183;-75
2022/10/12 09:54:59;;;;;;;10.52;5.97;;;18.20;83.20;;;;;;5048921;28;20369;-75
2022/10/12 09:57:37;;;;;;;6.80;6.07;;;18.30;83.50;;;;;;5049640;28;20267;-76
2022/10/12 10:00:21;;;;;;;7.70;6.72;;;18.40;83.40;;;;;;5049205;28;20580;-76
2022/10/12 10:02:48;;;;;;;7.13;6.45;;;18.50;83.20;;;;;;5051710;28;20194;-76
2022/10/12 10:05:29;;;;;;;6.78;5.75;;;18.50;83.00;;;;;;5051037;28;20218;-75
2022/10/12 10:08:13;;;;;;;7.18;6.45;;;18.40;82.00;;;;;;5048307;28;20179;-75
2022/10/12 10:10:52;;;;;;;6.35;5.78;;;18.30;82.50;;;;;;5043471;28;20184;-76
2022/10/12 10:13:18;;;;;;;6.13;5.15;;;18.30;82.00;;;;;;5048746;28;20183;-75
2022/10/12 10:15:50;;;;;;;6.50;5.82;;;18.40;82.50;;;;;;5051936;28;20995;-75
2022/10/12 10:18:22;;;;;;;6.85;6.10;;;18.40;82.60;;;;;;5054185;28;20179;-75
2022/10/12 10:20:54;;;;;;;5.78;5.25;;;18.40;82.50;;;;;;5048753;28;20233;-75
2022/10/12 10:23:28;;;;;;;9.30;6.28;;;18.50;82.90;;;;;;5046982;28;20187;-76
2022/10/12 10:26:06;;;;;;;5.80;5.30;;;18.60;81.40;;;;;;5046328;28;20249;-75
2022/10/12 10:28:34;;;;;;;7.72;5.25;;;18.50;81.10;;;;;;5044328;28;20953;-75
2022/10/12 10:31:03;;;;;;;5.40;4.95;;;18.50;80.80;;;;;;5048420;28;20952;-75
2022/10/12 10:33:34;;;;;;;6.25;5.32;;;18.50;80.10;;;;;;5052550;28;20244;-75
2022/10/12 10:36:22;;;;;;;5.88;5.38;;;18.20;80.30;;;;;;5053859;28;20175;-75
2022/10/12 10:39:01;;;;;;;5.93;5.32;;;18.20;80.60;;;;;;5051721;28;20904;-75
2022/10/12 10:41:32;;;;;;;5.88;5.40;;;18.20;81.10;;;;;;5050011;28;20174;-75
2022/10/12 10:43:58;;;;;;;5.72;5.18;;;18.40;81.40;;;;;;5051058;28;20218;-75
2022/10/12 10:46:27;;;;;;;5.43;5.07;;;18.40;81.50;;;;;;5049276;28;20183;-74
2022/10/12 10:49:00;;;;;;;7.70;5.40;;;18.40;81.80;;;;;;5050543;28;20219;-76
2022/10/12 10:51:48;;;;;;;6.38;5.78;;;18.60;81.40;;;;;;5046679;28;20258;-76
2022/10/12 10:54:23;;;;;;;9.40;5.75;;;18.70;81.10;;;;;;5083164;28;20183;-75
2022/10/12 10:57:05;;;;;;;6.65;5.43;;;18.80;81.00;;;;;;5050634;28;20190;-77
2022/10/12 11:00:01;;;;;;;8.98;6.15;;;18.90;80.30;;;;;;5053534;28;20237;-76
2022/10/12 11:02:39;;;;;;;6.18;5.57;;;18.90;79.90;;;;;;5045531;28;20187;-76
2022/10/12 11:05:15;;;;;;;6.22;5.68;;;18.90;80.10;;;;;;5052912;28;20210;-76
2022/10/12 11:07:53;;;;;;;6.32;5.57;;;19.00;80.00;;;;;;5051279;28;20264;-76
2022/10/12 11:10:41;;;;;;;5.85;5.10;;;19.10;80.10;;;;;;5046720;28;20183;-77
2022/10/12 11:13:19;;;;;;;6.75;5.15;;;19.20;79.40;;;;;;5048243;28;20617;-76
2022/10/12 11:15:53;;;;;;;5.70;5.13;;;19.20;79.80;;;;;;5044229;28;20183;-76
2022/10/12 11:18:21;;;;;;;8.48;6.75;;;19.40;79.40;;;;;;5049291;28;20184;-76
2022/10/12 11:21:21;;;;;;;16.65;9.68;;;19.40;78.90;;;;;;5043207;28;20184;-76
2022/10/12 11:24:15;;;;;;;14.73;8.82;;;19.40;79.30;;;;;;4998582;28;20228;-77
2022/10/12 11:26:52;;;;;;;10.93;7.07;;;19.40;78.80;;;;;;4998671;28;20439;-77
2022/10/12 11:29:18;;;;;;;6.72;5.38;;;19.40;78.40;;;;;;4995177;28;20192;-76
2022/10/12 11:32:06;;;;;;;8.48;6.60;;;19.40;78.50;;;;;;4993797;28;20255;-76
2022/10/12 11:34:44;;;;;;;8.77;5.85;;;19.40;78.80;;;;;;4999499;28;20260;-76
2022/10/12 11:37:19;;;;;;;6.55;5.90;;;19.40;79.40;;;;;;4997120;28;20652;-75
2022/10/12 11:39:52;;;;;;;7.65;6.35;;;19.50;78.70;;;;;;4997708;28;20207;-76
2022/10/12 11:42:40;;;;;;;7.25;6.55;;;19.60;78.70;;;;;;4980332;28;20224;-76
2022/10/12 11:45:19;;;;;;;7.93;6.30;;;19.80;78.50;;;;;;4993147;28;21147;-75
2022/10/12 11:47:48;;;;;;;7.10;6.40;;;19.90;77.90;;;;;;4996656;28;20181;-76
2022/10/12 11:50:45;;;;;;;7.30;6.60;;;20.00;77.20;;;;;;4997020;28;20888;-77
2022/10/12 11:53:29;;;;;;;6.60;5.30;;;20.10;77.10;;;;;;4994989;28;21642;-77
2022/10/12 11:56:20;;;;;;;8.63;5.75;;;20.20;76.80;;;;;;4995333;28;20211;-77
2022/10/12 11:58:50;;;;;;;8.10;6.15;;;20.30;77.00;;;;;;5007220;28;20665;-77
2022/10/12 12:01:28;;;;;;;6.32;5.70;;;20.30;76.20;;;;;;5041860;28;20210;-77
2022/10/12 12:04:00;;;;;;;5.90;5.32;;;20.40;76.10;;;;;;5044332;28;20241;-77
2022/10/12 12:06:28;;;;;;;5.68;5.18;;;20.50;75.90;;;;;;5057079;28;20198;-76
2022/10/12 12:09:05;;;;;;;5.63;5.10;;;20.50;75.80;;;;;;5048352;28;20175;-77
2022/10/12 12:11:33;;;;;;;5.63;5.25;;;20.50;75.50;;;;;;5050228;28;20179;-76
2022/10/12 12:14:24;;;;;;;7.68;6.00;;;20.60;75.70;;;;;;5051121;28;20182;-76
2022/10/12 12:17:08;;;;;;;5.28;4.97;;;20.60;74.90;;;;;;5051531;28;20192;-76
2022/10/12 12:19:40;;;;;;;5.90;5.40;;;20.60;75.70;;;;;;5051783;28;20218;-76
2022/10/12 12:22:18;;;;;;;7.30;5.65;;;20.60;75.70;;;;;;5049880;28;20301;-75
2022/10/12 12:25:07;;;;;;;6.45;5.85;;;20.60;75.70;;;;;;5054226;28;20249;-76
2022/10/12 12:27:54;;;;;;;5.68;5.18;;;20.70;75.20;;;;;;5056959;28;20191;-75
2022/10/12 12:30:39;;;;;;;5.72;5.28;;;20.70;75.10;;;;;;5051588;28;20582;-77
2022/10/12 12:33:32;;;;;;;5.85;5.35;;;20.70;75.30;;;;;;5050086;28;20176;-76
2022/10/12 12:36:09;;;;;;;5.90;5.40;;;20.80;74.40;;;;;;5046159;28;20187;-76
2022/10/12 12:38:39;;;;;;;6.10;5.57;;;20.70;74.60;;;;;;5052291;28;20266;-76
2022/10/12 12:41:07;;;;;;;5.95;5.45;;;20.60;74.50;;;;;;5053626;28;20188;-75
2022/10/12 12:43:32;;;;;;;5.95;5.40;;;20.50;75.20;;;;;;5053828;28;20215;-76
2022/10/12 12:46:07;;;;;;;6.40;5.82;;;20.50;75.40;;;;;;5054239;28;20232;-76
2022/10/12 12:48:38;;;;;;;5.80;5.22;;;20.50;75.30;;;;;;5052753;28;20202;-76
2022/10/12 12:51:14;;;;;;;12.52;6.53;;;20.50;75.30;;;;;;5049041;28;20184;-76
2022/10/12 12:53:55;;;;;;;8.32;6.47;;;20.40;75.30;;;;;;5050595;28;20179;-76
2022/10/12 12:56:21;;;;;;;6.90;6.15;;;20.40;75.70;;;;;;5053634;28;20188;-76
2022/10/12 12:59:29;;;;;;;6.45;5.80;;;20.50;75.40;;;;;;5053828;28;20183;-77
2022/10/12 13:02:01;;;;;;;7.97;6.30;;;20.50;75.50;;;;;;5050725;28;20244;-76